Time,TemperatureF,DewpointF,PressureIn,WindDirection,WindDirectionDegrees,WindSpeedMPH,WindSpeedGustMPH,Humidity,HourlyPrecipIn,Conditions,Clouds,dailyrainin,SoftwareType,DateUTC
2013-03-18 00:00:00,13.8,8.0,30.31,SSE,157,0.0,-999.0,77,0.00,,,0.00,MetarLogicWeatherSta,2013-03-18 04:00:00,
2013-03-18 00:05:00,13.7,8.0,30.32,SSE,157,0.0,-999.0,77,0.00,,,0.00,MetarLogicWeatherSta,2013-03-18 04:05:00,
2013-03-18 00:10:00,13.7,8.2,30.32,SSE,157,0.0,-999.0,78,0.00,,,0.00,MetarLogicWeatherSta,2013-03-18 04:10:00,
2013-03-18 00:15:00,13.7,8.2,30.32,SSE,157,0.0,-999.0,78,0.00,,,0.00,MetarLogicWeatherSta,2013-03-18 04:15:00,
2013-03-18 00:20:00,13.4,7.8,30.32,SSE,157,0.0,-999.0,78,0.00,,,0.00,MetarLogicWeatherSta,2013-03-18 04:20:00,
2013-03-18 00:27:00,13.4,7.9,30.32,SE,135,0.0,-999.0,78,0.00,,,0.00,MetarLogicWeatherSta,2013-03-18 04:27:00,
2013-03-18 00:32:00,13.0,7.8,30.31,SSE,157,0.0,-999.0,79,0.00,,,0.00,MetarLogicWeatherSta,2013-03-18 04:32:00,
2013-03-18 00:37:00,12.9,7.9,30.32,SSE,157,0.0,-999.0,80,0.00,,,0.00,MetarLogicWeatherSta,2013-03-18 04:37:00,
2013-03-18 00:42:00,12.8,7.6,30.32,SSE,157,0.0,-999.0,79,0.00,,,0.00,MetarLogicWeatherSta,2013-03-18 04:42:00,
2013-03-18 00:47:00,12.8,7.7,30.32,SSE,157,0.0,-999.0,79,0.00,,,0.00,MetarLogicWeatherSta,2013-03-18 04:47:00,
2013-03-18 00:52:00,12.4,7.4,30.32,SSE,157,0.0,-999.0,80,0.00,,,0.00,MetarLogicWeatherSta,2013-03-18 04:52:00,
2013-03-18 00:57:00,12.3,7.2,30.32,SSE,157,0.0,-999.0,79,0.00,,,0.00,MetarLogicWeatherSta,2013-03-18 04:57:00,
2013-03-18 01:02:00,12.1,7.0,30.32,SE,135,0.0,-999.0,79,0.00,,,0.00,MetarLogicWeatherSta,2013-03-18 05:02:00,
2013-03-18 01:07:00,12.1,7.5,30.32,SSE,157,0.0,-999.0,81,0.00,,,0.00,MetarLogicWeatherSta,2013-03-18 05:07:00,
2013-03-18 01:12:00,12.3,7.8,30.32,SSE,157,0.0,-999.0,82,0.00,,,0.00,MetarLogicWeatherSta,2013-03-18 05:12:00,
2013-03-18 01:17:00,12.4,7.8,30.32,SSE,157,0.0,-999.0,81,0.00,,,0.00,MetarLogicWeatherSta,2013-03-18 05:17:00,
2013-03-18 01:22:00,12.3,7.9,30.31,SSE,157,0.0,-999.0,82,0.00,,,0.00,MetarLogicWeatherSta,2013-03-18 05:22:00,
2013-03-18 01:27:00,12.4,8.2,30.32,SSE,157,0.0,-999.0,83,0.00,,,0.00,MetarLogicWeatherSta,2013-03-18 05:27:00,
2013-03-18 01:32:00,12.2,7.9,30.31,SSE,157,0.0,-999.0,82,0.00,,,0.00,MetarLogicWeatherSta,2013-03-18 05:32:00,
2013-03-18 01:37:00,12.3,7.9,30.32,SSE,157,0.0,-999.0,82,0.00,,,0.00,MetarLogicWeatherSta,2013-03-18 05:37:00,
2013-03-18 01:42:00,12.4,8.2,30.31,SSE,157,0.0,-999.0,83,0.00,,,0.00,MetarLogicWeatherSta,2013-03-18 05:42:00,
2013-03-18 01:47:00,12.3,8.0,30.31,SSE,157,0.0,-999.0,82,0.00,,,0.00,MetarLogicWeatherSta,2013-03-18 05:47:00,
2013-03-18 01:52:00,11.6,7.4,30.31,SSE,157,0.0,-999.0,83,0.00,,,0.00,MetarLogicWeatherSta,2013-03-18 05:52:00,
2013-03-18 01:57:00,11.8,7.6,30.31,SSE,157,0.0,-999.0,83,0.00,,,0.00,MetarLogicWeatherSta,2013-03-18 05:57:00,
2013-03-18 02:02:00,11.5,7.6,30.31,SSE,157,0.0,-999.0,83,0.00,,,0.00,MetarLogicWeatherSta,2013-03-18 06:02:00,
2013-03-18 02:07:00,11.7,7.6,30.31,SSE,157,0.0,-999.0,83,0.00,,,0.00,MetarLogicWeatherSta,2013-03-18 06:07:00,
2013-03-18 02:12:00,12.2,8.4,30.31,SSE,157,0.0,-999.0,84,0.00,,,0.00,MetarLogicWeatherSta,2013-03-18 06:12:00,
2013-03-18 02:17:00,12.1,8.3,30.31,SSE,157,0.0,-999.0,84,0.00,,,0.00,MetarLogicWeatherSta,2013-03-18 06:17:00,
2013-03-18 02:22:00,11.8,7.9,30.31,SSE,157,0.0,-999.0,84,0.00,,,0.00,MetarLogicWeatherSta,2013-03-18 06:22:00,
2013-03-18 02:27:00,12.1,8.2,30.30,SSE,157,0.0,-999.0,84,0.00,,,0.00,MetarLogicWeatherSta,2013-03-18 06:27:00,
2013-03-18 02:32:00,11.9,7.9,30.31,SE,135,0.0,-999.0,84,0.00,,,0.00,MetarLogicWeatherSta,2013-03-18 06:32:00,
2013-03-18 02:37:00,12.0,8.2,30.30,SE,135,0.0,-999.0,84,0.00,,,0.00,MetarLogicWeatherSta,2013-03-18 06:37:00,
2013-03-18 02:42:00,11.8,8.3,30.30,SSE,157,0.0,-999.0,86,0.00,,,0.00,MetarLogicWeatherSta,2013-03-18 06:42:00,
2013-03-18 02:47:00,12.2,8.6,30.30,SSE,157,0.0,-999.0,85,0.00,,,0.00,MetarLogicWeatherSta,2013-03-18 06:47:00,
2013-03-18 02:52:00,12.1,8.6,30.29,SSE,157,0.0,-999.0,85,0.00,,,0.00,MetarLogicWeatherSta,2013-03-18 06:52:00,
2013-03-18 02:57:00,12.1,8.6,30.29,SSE,157,0.0,-999.0,85,0.00,,,0.00,MetarLogicWeatherSta,2013-03-18 06:57:00,
2013-03-18 03:02:00,11.9,8.3,30.29,SSE,157,0.0,-999.0,85,0.00,,,0.00,MetarLogicWeatherSta,2013-03-18 07:02:00,
2013-03-18 03:07:00,12.1,8.5,30.29,SSE,157,0.0,-999.0,85,0.00,,,0.00,MetarLogicWeatherSta,2013-03-18 07:07:00,
2013-03-18 03:12:00,11.9,8.4,30.29,SSE,157,0.0,-999.0,85,0.00,,,0.00,MetarLogicWeatherSta,2013-03-18 07:12:00,
2013-03-18 03:17:00,11.6,8.2,30.28,SSE,157,0.0,-999.0,86,0.00,,,0.00,MetarLogicWeatherSta,2013-03-18 07:17:00,
2013-03-18 03:22:00,11.6,8.1,30.28,SSE,157,0.0,-999.0,85,0.00,,,0.00,MetarLogicWeatherSta,2013-03-18 07:22:00,
2013-03-18 03:27:00,11.8,8.1,30.28,SSE,157,0.0,-999.0,85,0.00,,,0.00,MetarLogicWeatherSta,2013-03-18 07:27:00,
2013-03-18 03:32:00,11.6,8.3,30.28,SSE,157,0.0,-999.0,86,0.00,,,0.00,MetarLogicWeatherSta,2013-03-18 07:32:00,
2013-03-18 03:37:00,11.8,8.5,30.28,SSE,157,0.0,-999.0,86,0.00,,,0.00,MetarLogicWeatherSta,2013-03-18 07:37:00,
2013-03-18 03:42:00,11.9,8.7,30.28,SSE,157,0.0,-999.0,86,0.00,,,0.00,MetarLogicWeatherSta,2013-03-18 07:42:00,
2013-03-18 03:47:00,11.6,8.4,30.28,SSE,157,0.0,-999.0,86,0.00,,,0.00,MetarLogicWeatherSta,2013-03-18 07:47:00,
2013-03-18 03:52:00,11.5,7.9,30.27,SSE,157,0.0,-999.0,85,0.00,,,0.00,MetarLogicWeatherSta,2013-03-18 07:52:00,
2013-03-18 03:57:00,11.9,8.5,30.28,SSE,157,0.0,-999.0,86,0.00,,,0.00,MetarLogicWeatherSta,2013-03-18 07:57:00,
2013-03-18 04:02:00,11.8,8.7,30.27,SSE,157,0.0,-999.0,87,0.00,,,0.00,MetarLogicWeatherSta,2013-03-18 08:02:00,
2013-03-18 04:08:00,11.6,8.4,30.28,SSE,157,0.0,-999.0,86,0.00,,,0.00,MetarLogicWeatherSta,2013-03-18 08:08:00,
2013-03-18 04:13:00,11.6,8.1,30.27,SSE,157,0.0,-999.0,85,0.00,,,0.00,MetarLogicWeatherSta,2013-03-18 08:13:00,
2013-03-18 04:18:00,11.8,8.6,30.27,SSE,157,0.0,-999.0,86,0.00,,,0.00,MetarLogicWeatherSta,2013-03-18 08:18:00,
2013-03-18 04:23:00,11.7,8.2,30.28,SSE,157,0.0,-999.0,85,0.00,,,0.00,MetarLogicWeatherSta,2013-03-18 08:23:00,
2013-03-18 04:28:00,11.5,8.4,30.28,SSE,157,0.0,-999.0,87,0.00,,,0.00,MetarLogicWeatherSta,2013-03-18 08:28:00,
2013-03-18 04:33:00,12.1,9.1,30.28,SSE,157,0.0,-999.0,87,0.00,,,0.00,MetarLogicWeatherSta,2013-03-18 08:33:00,
2013-03-18 04:38:00,12.1,9.0,30.28,SSE,157,0.0,-999.0,87,0.00,,,0.00,MetarLogicWeatherSta,2013-03-18 08:38:00,
2013-03-18 04:43:00,11.8,8.7,30.28,SSE,157,0.0,-999.0,87,0.00,,,0.00,MetarLogicWeatherSta,2013-03-18 08:43:00,
2013-03-18 04:48:00,12.1,8.9,30.28,SSE,157,0.0,-999.0,87,0.00,,,0.00,MetarLogicWeatherSta,2013-03-18 08:48:00,
2013-03-18 04:53:00,11.9,8.7,30.28,SE,135,0.0,-999.0,86,0.00,,,0.00,MetarLogicWeatherSta,2013-03-18 08:53:00,
2013-03-18 04:58:00,12.0,9.0,30.28,SSE,157,0.0,-999.0,87,0.00,,,0.00,MetarLogicWeatherSta,2013-03-18 08:58:00,
2013-03-18 05:03:00,12.3,9.3,30.28,SSE,157,0.0,-999.0,87,0.00,,,0.00,MetarLogicWeatherSta,2013-03-18 09:03:00,
2013-03-18 05:08:00,12.3,9.2,30.28,SSE,157,0.0,-999.0,87,0.00,,,0.00,MetarLogicWeatherSta,2013-03-18 09:08:00,
2013-03-18 05:13:00,12.4,9.3,30.28,SSE,157,0.0,-999.0,87,0.00,,,0.00,MetarLogicWeatherSta,2013-03-18 09:13:00,
2013-03-18 05:18:00,12.1,9.0,30.28,SSE,157,0.0,-999.0,87,0.00,,,0.00,MetarLogicWeatherSta,2013-03-18 09:18:00,
2013-03-18 05:23:00,11.9,8.7,30.28,SSE,157,0.0,-999.0,87,0.00,,,0.00,MetarLogicWeatherSta,2013-03-18 09:23:00,
2013-03-18 05:28:00,11.9,8.7,30.28,SSE,157,0.0,-999.0,86,0.00,,,0.00,MetarLogicWeatherSta,2013-03-18 09:28:00,
2013-03-18 05:33:00,11.9,8.6,30.29,SSE,157,0.0,-999.0,86,0.00,,,0.00,MetarLogicWeatherSta,2013-03-18 09:33:00,
2013-03-18 05:38:00,11.5,8.2,30.29,SSE,157,0.0,-999.0,86,0.00,,,0.00,MetarLogicWeatherSta,2013-03-18 09:38:00,
2013-03-18 05:43:00,11.7,8.7,30.29,SSE,157,0.0,-999.0,87,0.00,,,0.00,MetarLogicWeatherSta,2013-03-18 09:43:00,
2013-03-18 05:48:00,12.1,9.1,30.29,SSE,157,0.0,-999.0,87,0.00,,,0.00,MetarLogicWeatherSta,2013-03-18 09:48:00,
2013-03-18 05:53:00,12.2,9.1,30.29,SSE,157,0.0,-999.0,87,0.00,,,0.00,MetarLogicWeatherSta,2013-03-18 09:53:00,
2013-03-18 05:58:00,12.3,9.3,30.29,SSE,157,0.0,-999.0,87,0.00,,,0.00,MetarLogicWeatherSta,2013-03-18 09:58:00,
2013-03-18 06:03:00,11.8,8.8,30.29,SSE,157,0.0,-999.0,87,0.00,,,0.00,MetarLogicWeatherSta,2013-03-18 10:03:00,
2013-03-18 06:08:00,11.9,8.9,30.29,SSE,157,0.0,-999.0,87,0.00,,,0.00,MetarLogicWeatherSta,2013-03-18 10:08:00,
2013-03-18 06:13:00,12.0,9.2,30.29,SSE,157,0.0,-999.0,88,0.00,,,0.00,MetarLogicWeatherSta,2013-03-18 10:13:00,
2013-03-18 06:19:00,12.1,9.2,30.29,SSE,157,0.0,-999.0,88,0.00,,,0.00,MetarLogicWeatherSta,2013-03-18 10:19:00,
2013-03-18 06:24:00,12.0,9.0,30.29,SSE,157,0.0,-999.0,87,0.00,,,0.00,MetarLogicWeatherSta,2013-03-18 10:24:00,
2013-03-18 06:29:00,12.2,9.2,30.29,SSE,157,0.0,-999.0,87,0.00,,,0.00,MetarLogicWeatherSta,2013-03-18 10:29:00,
2013-03-18 06:34:00,12.0,9.1,30.29,SSE,157,0.0,-999.0,87,0.00,,,0.00,MetarLogicWeatherSta,2013-03-18 10:34:00,
2013-03-18 06:39:00,12.3,9.4,30.29,SSE,157,0.0,-999.0,88,0.00,,,0.00,MetarLogicWeatherSta,2013-03-18 10:39:00,
2013-03-18 06:44:00,12.0,9.1,30.28,SSE,157,0.0,-999.0,88,0.00,,,0.00,MetarLogicWeatherSta,2013-03-18 10:44:00,
2013-03-18 06:50:00,12.5,9.7,30.29,SSE,157,0.0,-999.0,88,0.00,,,0.00,MetarLogicWeatherSta,2013-03-18 10:50:00,
2013-03-18 06:55:00,12.9,10.2,30.29,SE,135,0.0,-999.0,88,0.00,,,0.00,MetarLogicWeatherSta,2013-03-18 10:55:00,
2013-03-18 07:00:00,13.2,10.4,30.28,SE,135,0.0,-999.0,88,0.00,,,0.00,MetarLogicWeatherSta,2013-03-18 11:00:00,
2013-03-18 07:05:00,13.3,10.6,30.28,SE,135,0.0,-999.0,88,0.00,,,0.00,MetarLogicWeatherSta,2013-03-18 11:05:00,
2013-03-18 07:10:00,13.6,11.0,30.28,SE,135,0.0,-999.0,89,0.00,,,0.00,MetarLogicWeatherSta,2013-03-18 11:10:00,
2013-03-18 07:15:00,13.7,10.9,30.28,SSE,157,0.0,-999.0,88,0.00,,,0.00,MetarLogicWeatherSta,2013-03-18 11:15:00,
2013-03-18 07:20:00,14.2,11.4,30.28,SE,135,0.0,-999.0,88,0.00,,,0.00,MetarLogicWeatherSta,2013-03-18 11:20:00,
2013-03-18 07:25:00,14.3,11.7,30.28,SE,135,0.0,-999.0,89,0.00,,,0.00,MetarLogicWeatherSta,2013-03-18 11:25:00,
2013-03-18 07:30:00,14.8,11.9,30.28,SE,135,0.0,-999.0,88,0.00,,,0.00,MetarLogicWeatherSta,2013-03-18 11:30:00,
2013-03-18 07:35:00,15.3,12.5,30.28,ESE,112,1.0,-999.0,88,0.00,,,0.00,MetarLogicWeatherSta,2013-03-18 11:35:00,
2013-03-18 07:40:00,16.1,13.1,30.28,East,90,0.0,-999.0,87,0.00,,,0.00,MetarLogicWeatherSta,2013-03-18 11:40:00,
2013-03-18 07:45:00,16.9,13.5,30.28,East,90,0.0,-999.0,86,0.00,,,0.00,MetarLogicWeatherSta,2013-03-18 11:45:00,
2013-03-18 07:50:00,17.4,13.5,30.28,NE,45,0.0,-999.0,84,0.00,,,0.00,MetarLogicWeatherSta,2013-03-18 11:50:00,
2013-03-18 07:55:00,17.9,13.6,30.28,East,90,1.0,-999.0,83,0.00,,,0.00,MetarLogicWeatherSta,2013-03-18 11:55:00,
2013-03-18 08:00:00,18.1,13.5,30.28,NE,45,1.0,-999.0,82,0.00,,,0.00,MetarLogicWeatherSta,2013-03-18 12:00:00,
2013-03-18 08:05:00,18.2,13.5,30.28,ENE,67,0.0,-999.0,81,0.00,,,0.00,MetarLogicWeatherSta,2013-03-18 12:05:00,
2013-03-18 08:10:00,18.5,13.8,30.26,NE,45,0.0,-999.0,81,0.00,,,0.00,MetarLogicWeatherSta,2013-03-18 12:10:00,
2013-03-18 08:15:00,18.3,13.7,30.26,East,90,0.0,-999.0,82,0.00,,,0.00,MetarLogicWeatherSta,2013-03-18 12:15:00,
2013-03-18 08:20:00,18.4,13.9,30.26,NE,45,3.0,-999.0,82,0.00,,,0.00,MetarLogicWeatherSta,2013-03-18 12:20:00,
2013-03-18 08:25:00,19.0,14.4,30.25,NE,45,6.0,-999.0,82,0.00,,,0.00,MetarLogicWeatherSta,2013-03-18 12:25:00,
2013-03-18 08:30:00,19.0,14.0,30.24,NE,45,3.0,-999.0,80,0.00,,,0.00,MetarLogicWeatherSta,2013-03-18 12:30:00,
2013-03-18 08:35:00,19.3,14.4,30.24,ENE,67,3.0,-999.0,80,0.00,,,0.00,MetarLogicWeatherSta,2013-03-18 12:35:00,
2013-03-18 08:40:00,19.7,14.8,30.24,ENE,67,3.0,-999.0,80,0.00,,,0.00,MetarLogicWeatherSta,2013-03-18 12:40:00,
2013-03-18 08:45:00,20.1,14.2,30.24,East,90,6.0,-999.0,77,0.00,,,0.00,MetarLogicWeatherSta,2013-03-18 12:45:00,
2013-03-18 08:50:00,20.9,14.1,30.24,ENE,67,6.0,-999.0,74,0.00,,,0.00,MetarLogicWeatherSta,2013-03-18 12:50:00,
2013-03-18 08:55:00,21.0,13.9,30.24,NNE,22,13.0,-999.0,73,0.00,,,0.00,MetarLogicWeatherSta,2013-03-18 12:55:00,
2013-03-18 09:00:00,21.5,14.2,30.24,ENE,67,6.0,-999.0,73,0.00,,,0.00,MetarLogicWeatherSta,2013-03-18 13:00:00,
2013-03-18 09:05:00,22.1,14.6,30.23,NE,45,10.0,-999.0,72,0.00,,,0.00,MetarLogicWeatherSta,2013-03-18 13:05:00,
2013-03-18 09:10:00,22.6,14.6,30.22,NE,45,12.0,-999.0,70,0.00,,,0.00,MetarLogicWeatherSta,2013-03-18 13:10:00,
2013-03-18 09:17:00,22.7,14.4,30.22,East,90,3.0,-999.0,70,0.00,,,0.00,MetarLogicWeatherSta,2013-03-18 13:17:00,
2013-03-18 09:22:00,23.1,14.8,30.21,ENE,67,10.0,-999.0,70,0.00,,,0.00,MetarLogicWeatherSta,2013-03-18 13:22:00,
2013-03-18 09:27:00,23.6,14.6,30.21,NE,45,9.0,-999.0,68,0.00,,,0.00,MetarLogicWeatherSta,2013-03-18 13:27:00,
2013-03-18 09:32:00,23.8,14.9,30.21,NE,45,7.0,-999.0,68,0.00,,,0.00,MetarLogicWeatherSta,2013-03-18 13:32:00,
2013-03-18 09:37:00,24.2,14.7,30.21,ENE,67,4.0,-999.0,66,0.00,,,0.00,MetarLogicWeatherSta,2013-03-18 13:37:00,
2013-03-18 09:42:00,24.3,14.4,30.20,NE,45,10.0,-999.0,65,0.00,,,0.00,MetarLogicWeatherSta,2013-03-18 13:42:00,
2013-03-18 09:47:00,24.9,14.1,30.20,NE,45,6.0,-999.0,63,0.00,,,0.00,MetarLogicWeatherSta,2013-03-18 13:47:00,
2013-03-18 09:52:00,25.1,13.7,30.20,NE,45,6.0,-999.0,61,0.00,,,0.00,MetarLogicWeatherSta,2013-03-18 13:52:00,
2013-03-18 09:57:00,25.1,13.5,30.20,NE,45,4.0,-999.0,61,0.00,,,0.00,MetarLogicWeatherSta,2013-03-18 13:57:00,
2013-03-18 10:02:00,25.5,14.2,30.19,ENE,67,9.0,-999.0,61,0.00,,,0.00,MetarLogicWeatherSta,2013-03-18 14:02:00,
2013-03-18 10:07:00,25.6,13.9,30.19,NE,45,4.0,-999.0,60,0.00,,,0.00,MetarLogicWeatherSta,2013-03-18 14:07:00,
2013-03-18 10:12:00,25.9,13.9,30.19,NE,45,9.0,-999.0,60,0.00,,,0.00,MetarLogicWeatherSta,2013-03-18 14:12:00,
2013-03-18 10:17:00,26.1,13.5,30.19,NE,45,6.0,-999.0,58,0.00,,,0.00,MetarLogicWeatherSta,2013-03-18 14:17:00,
2013-03-18 10:22:00,26.2,13.3,30.19,East,90,10.0,-999.0,57,0.00,,,0.00,MetarLogicWeatherSta,2013-03-18 14:22:00,
2013-03-18 10:27:00,26.3,13.7,30.18,NE,45,6.0,-999.0,58,0.00,,,0.00,MetarLogicWeatherSta,2013-03-18 14:27:00,
2013-03-18 10:32:00,26.7,14.2,30.18,ENE,67,9.0,-999.0,59,0.00,,,0.00,MetarLogicWeatherSta,2013-03-18 14:32:00,
2013-03-18 10:37:00,26.7,13.7,30.18,NE,45,7.0,-999.0,57,0.00,,,0.00,MetarLogicWeatherSta,2013-03-18 14:37:00,
2013-03-18 10:42:00,26.8,14.1,30.18,NE,45,9.0,-999.0,58,0.00,,,0.00,MetarLogicWeatherSta,2013-03-18 14:42:00,
2013-03-18 10:47:00,26.9,14.1,30.17,ENE,67,15.0,-999.0,58,0.00,,,0.00,MetarLogicWeatherSta,2013-03-18 14:47:00,
2013-03-18 10:52:00,27.2,14.1,30.17,ENE,67,9.0,-999.0,57,0.00,,,0.00,MetarLogicWeatherSta,2013-03-18 14:52:00,
2013-03-18 10:57:00,27.3,13.5,30.17,NE,45,10.0,-999.0,55,0.00,,,0.00,MetarLogicWeatherSta,2013-03-18 14:57:00,
2013-03-18 11:02:00,27.6,14.2,30.17,NE,45,6.0,-999.0,56,0.00,,,0.00,MetarLogicWeatherSta,2013-03-18 15:02:00,
2013-03-18 11:07:00,28.0,14.1,30.16,ENE,67,13.0,-999.0,55,0.00,,,0.00,MetarLogicWeatherSta,2013-03-18 15:07:00,
2013-03-18 11:12:00,27.9,13.1,30.16,East,90,13.0,-999.0,53,0.00,,,0.00,MetarLogicWeatherSta,2013-03-18 15:12:00,
2013-03-18 11:17:00,28.1,13.9,30.16,NE,45,10.0,-999.0,54,0.00,,,0.00,MetarLogicWeatherSta,2013-03-18 15:17:00,
2013-03-18 11:22:00,28.2,13.6,30.15,East,90,9.0,-999.0,53,0.00,,,0.00,MetarLogicWeatherSta,2013-03-18 15:22:00,
2013-03-18 11:27:00,28.3,13.4,30.15,NE,45,12.0,-999.0,53,0.00,,,0.00,MetarLogicWeatherSta,2013-03-18 15:27:00,
2013-03-18 11:32:00,28.6,13.6,30.15,NE,45,7.0,-999.0,53,0.00,,,0.00,MetarLogicWeatherSta,2013-03-18 15:32:00,
2013-03-18 11:37:00,28.6,13.4,30.15,NE,45,6.0,-999.0,52,0.00,,,0.00,MetarLogicWeatherSta,2013-03-18 15:37:00,
2013-03-18 11:42:00,29.0,14.6,30.14,NE,45,12.0,-999.0,54,0.00,,,0.00,MetarLogicWeatherSta,2013-03-18 15:42:00,
2013-03-18 11:47:00,29.1,14.4,30.14,East,90,12.0,-999.0,53,0.00,,,0.00,MetarLogicWeatherSta,2013-03-18 15:47:00,
2013-03-18 11:52:00,29.3,14.1,30.13,NE,45,6.0,-999.0,52,0.00,,,0.00,MetarLogicWeatherSta,2013-03-18 15:52:00,
2013-03-18 11:57:00,29.6,13.7,30.13,ENE,67,10.0,-999.0,51,0.00,,,0.00,MetarLogicWeatherSta,2013-03-18 15:57:00,
2013-03-18 12:02:00,29.6,13.4,30.13,ENE,67,9.0,-999.0,50,0.00,,,0.00,MetarLogicWeatherSta,2013-03-18 16:02:00,
2013-03-18 12:07:00,29.5,12.9,30.13,NE,45,13.0,-999.0,49,0.00,,,0.00,MetarLogicWeatherSta,2013-03-18 16:07:00,
2013-03-18 12:12:00,29.9,14.1,30.13,NE,45,9.0,-999.0,51,0.00,,,0.00,MetarLogicWeatherSta,2013-03-18 16:12:00,
2013-03-18 12:17:00,30.3,14.1,30.13,NE,45,12.0,-999.0,50,0.00,,,0.00,MetarLogicWeatherSta,2013-03-18 16:17:00,
2013-03-18 12:22:00,30.4,13.7,30.13,ENE,67,10.0,-999.0,49,0.00,,,0.00,MetarLogicWeatherSta,2013-03-18 16:22:00,
2013-03-18 12:27:00,30.5,14.0,30.12,North,0,12.0,-999.0,49,0.00,,,0.00,MetarLogicWeatherSta,2013-03-18 16:27:00,
2013-03-18 12:32:00,30.9,14.2,30.11,ENE,67,10.0,-999.0,49,0.00,,,0.00,MetarLogicWeatherSta,2013-03-18 16:32:00,
2013-03-18 12:37:00,31.2,14.0,30.11,NE,45,10.0,-999.0,48,0.00,,,0.00,MetarLogicWeatherSta,2013-03-18 16:37:00,
2013-03-18 12:42:00,31.2,14.0,30.11,ENE,67,7.0,-999.0,48,0.00,,,0.00,MetarLogicWeatherSta,2013-03-18 16:42:00,
2013-03-18 12:47:00,31.5,14.3,30.11,East,90,18.0,-999.0,48,0.00,,,0.00,MetarLogicWeatherSta,2013-03-18 16:47:00,
2013-03-18 12:52:00,31.7,14.4,30.10,ENE,67,6.0,-999.0,48,0.00,,,0.00,MetarLogicWeatherSta,2013-03-18 16:52:00,
2013-03-18 12:57:00,31.6,14.0,30.10,NE,45,15.0,-999.0,47,0.00,,,0.00,MetarLogicWeatherSta,2013-03-18 16:57:00,
2013-03-18 13:02:00,31.8,14.9,30.09,East,90,4.0,-999.0,49,0.00,,,0.00,MetarLogicWeatherSta,2013-03-18 17:02:00,
2013-03-18 13:07:00,31.8,14.3,30.09,NE,45,18.0,-999.0,47,0.00,,,0.00,MetarLogicWeatherSta,2013-03-18 17:07:00,
2013-03-18 13:12:00,31.8,14.6,30.09,ENE,67,9.0,-999.0,48,0.00,,,0.00,MetarLogicWeatherSta,2013-03-18 17:12:00,
2013-03-18 13:17:00,31.9,14.9,30.09,NE,45,10.0,-999.0,49,0.00,,,0.00,MetarLogicWeatherSta,2013-03-18 17:17:00,
2013-03-18 13:22:00,31.8,14.9,30.09,NE,45,10.0,-999.0,49,0.00,,,0.00,MetarLogicWeatherSta,2013-03-18 17:22:00,
2013-03-18 13:27:00,31.9,15.2,30.08,ENE,67,9.0,-999.0,49,0.00,,,0.00,MetarLogicWeatherSta,2013-03-18 17:27:00,
2013-03-18 13:32:00,32.1,15.2,30.08,East,90,7.0,-999.0,49,0.00,,,0.00,MetarLogicWeatherSta,2013-03-18 17:32:00,
2013-03-18 13:37:00,32.4,15.9,30.08,NE,45,9.0,-999.0,50,0.00,,,0.00,MetarLogicWeatherSta,2013-03-18 17:37:00,
2013-03-18 13:42:00,32.6,16.2,30.08,ENE,62,6.8,13.0,50,0.00,,,0.00,MetarLogicWeatherSta,2013-03-18 17:42:00,
2013-03-18 13:47:00,32.8,15.5,30.08,ENE,67,9.0,-999.0,48,0.00,,,0.00,MetarLogicWeatherSta,2013-03-18 17:47:00,
2013-03-18 13:52:00,33.0,16.1,30.07,NE,45,7.0,-999.0,49,0.00,,,0.00,MetarLogicWeatherSta,2013-03-18 17:52:00,
2013-03-18 13:57:00,33.0,15.7,30.07,NE,45,15.0,-999.0,48,0.00,,,0.00,MetarLogicWeatherSta,2013-03-18 17:57:00,
2013-03-18 14:02:00,33.0,15.0,30.06,NE,45,12.0,-999.0,47,0.00,,,0.00,MetarLogicWeatherSta,2013-03-18 18:02:00,
2013-03-18 14:07:00,33.0,15.2,30.07,NE,45,9.0,-999.0,47,0.00,,,0.00,MetarLogicWeatherSta,2013-03-18 18:07:00,
2013-03-18 14:12:00,33.1,15.6,30.06,NE,45,7.0,-999.0,48,0.00,,,0.00,MetarLogicWeatherSta,2013-03-18 18:12:00,
2013-03-18 14:17:00,33.2,15.6,30.06,ENE,67,7.0,-999.0,48,0.00,,,0.00,MetarLogicWeatherSta,2013-03-18 18:17:00,
2013-03-18 14:22:00,33.3,15.7,30.05,NNE,22,9.0,-999.0,48,0.00,,,0.00,MetarLogicWeatherSta,2013-03-18 18:22:00,
2013-03-18 14:27:00,33.4,16.1,30.06,East,90,12.0,-999.0,48,0.00,,,0.00,MetarLogicWeatherSta,2013-03-18 18:27:00,
2013-03-18 14:32:00,33.3,16.3,30.05,ENE,67,13.0,-999.0,49,0.00,,,0.00,MetarLogicWeatherSta,2013-03-18 18:32:00,
2013-03-18 14:37:00,33.2,15.9,30.05,East,90,7.0,-999.0,48,0.00,,,0.00,MetarLogicWeatherSta,2013-03-18 18:37:00,
2013-03-18 14:42:00,33.2,16.1,30.05,East,90,9.0,-999.0,49,0.00,,,0.00,MetarLogicWeatherSta,2013-03-18 18:42:00,
2013-03-18 14:47:00,33.1,16.5,30.05,NE,45,10.0,-999.0,50,0.00,,,0.00,MetarLogicWeatherSta,2013-03-18 18:47:00,
2013-03-18 14:52:00,33.1,17.3,30.04,East,90,9.0,-999.0,51,0.00,,,0.00,MetarLogicWeatherSta,2013-03-18 18:52:00,
2013-03-18 14:57:00,32.9,19.3,30.04,NE,45,6.0,-999.0,57,0.00,,,0.00,MetarLogicWeatherSta,2013-03-18 18:57:00,
2013-03-18 15:02:00,32.4,20.5,30.04,ESE,112,3.0,-999.0,61,0.00,,,0.00,MetarLogicWeatherSta,2013-03-18 19:02:00,
2013-03-18 15:07:00,32.1,21.5,30.03,ENE,67,10.0,-999.0,64,0.00,,,0.00,MetarLogicWeatherSta,2013-03-18 19:07:00,
2013-03-18 15:12:00,31.4,21.7,30.03,ENE,67,10.0,-999.0,66,0.00,,,0.00,MetarLogicWeatherSta,2013-03-18 19:12:00,
2013-03-18 15:17:00,30.6,22.6,30.03,ENE,67,12.0,-999.0,71,0.00,,,0.00,MetarLogicWeatherSta,2013-03-18 19:17:00,
2013-03-18 15:22:00,29.7,23.4,30.03,East,90,12.0,-999.0,77,0.00,,,0.00,MetarLogicWeatherSta,2013-03-18 19:22:00,
2013-03-18 15:27:00,28.9,23.8,30.02,NE,45,10.0,-999.0,81,0.00,,,0.00,MetarLogicWeatherSta,2013-03-18 19:27:00,
2013-03-18 15:32:00,28.6,24.2,30.02,East,90,6.0,-999.0,83,0.00,,,0.00,MetarLogicWeatherSta,2013-03-18 19:32:00,
2013-03-18 15:37:00,28.2,24.6,30.02,East,90,9.0,-999.0,86,0.00,,,0.00,MetarLogicWeatherSta,2013-03-18 19:37:00,
2013-03-18 15:42:00,27.8,24.6,30.01,NE,45,12.0,-999.0,87,0.00,,,0.00,MetarLogicWeatherSta,2013-03-18 19:42:00,
2013-03-18 15:47:00,27.7,25.0,30.01,NE,45,3.0,-999.0,89,0.00,,,0.00,MetarLogicWeatherSta,2013-03-18 19:47:00,
2013-03-18 15:52:00,27.8,25.4,30.01,East,90,10.0,-999.0,90,0.00,,,0.00,MetarLogicWeatherSta,2013-03-18 19:52:00,
2013-03-18 15:57:00,27.6,25.4,30.00,NE,45,12.0,-999.0,91,0.00,,,0.00,MetarLogicWeatherSta,2013-03-18 19:57:00,
2013-03-18 16:02:00,27.6,25.4,30.00,ENE,67,12.0,-999.0,91,0.00,,,0.00,MetarLogicWeatherSta,2013-03-18 20:02:00,
2013-03-18 16:07:00,27.4,25.3,29.99,NE,45,9.0,-999.0,91,0.00,,,0.00,MetarLogicWeatherSta,2013-03-18 20:07:00,
2013-03-18 16:12:00,27.3,25.4,29.99,East,90,7.0,-999.0,92,0.00,,,0.00,MetarLogicWeatherSta,2013-03-18 20:12:00,
2013-03-18 16:17:00,27.3,25.6,29.98,ENE,67,10.0,-999.0,93,0.00,,,0.00,MetarLogicWeatherSta,2013-03-18 20:17:00,
2013-03-18 16:22:00,27.3,25.6,29.98,SE,135,6.0,-999.0,93,0.00,,,0.00,MetarLogicWeatherSta,2013-03-18 20:22:00,
2013-03-18 16:27:00,26.9,25.3,29.98,ENE,67,7.0,-999.0,93,0.00,,,0.00,MetarLogicWeatherSta,2013-03-18 20:27:00,
2013-03-18 16:32:00,26.8,25.3,29.98,NE,45,15.0,-999.0,94,0.00,,,0.00,MetarLogicWeatherSta,2013-03-18 20:32:00,
2013-03-18 16:37:00,26.8,25.5,29.98,NNE,22,7.0,-999.0,94,0.00,,,0.00,MetarLogicWeatherSta,2013-03-18 20:37:00,
2013-03-18 16:42:00,26.7,25.2,29.98,NE,45,15.0,-999.0,94,0.00,,,0.00,MetarLogicWeatherSta,2013-03-18 20:42:00,
2013-03-18 16:47:00,26.6,24.9,29.97,ENE,67,12.0,-999.0,93,0.00,,,0.00,MetarLogicWeatherSta,2013-03-18 20:47:00,
2013-03-18 16:52:00,26.7,25.3,29.97,ENE,67,7.0,-999.0,94,0.00,,,0.00,MetarLogicWeatherSta,2013-03-18 20:52:00,
2013-03-18 16:57:00,26.3,24.7,29.96,NE,45,9.0,-999.0,93,0.00,,,0.00,MetarLogicWeatherSta,2013-03-18 20:57:00,
2013-03-18 17:02:00,26.4,25.0,29.96,ENE,67,18.0,-999.0,94,0.00,,,0.00,MetarLogicWeatherSta,2013-03-18 21:02:00,
2013-03-18 17:07:00,26.5,24.9,29.96,East,90,6.0,-999.0,93,0.00,,,0.00,MetarLogicWeatherSta,2013-03-18 21:07:00,
2013-03-18 17:12:00,26.5,24.7,29.95,NE,45,6.0,-999.0,92,0.00,,,0.00,MetarLogicWeatherSta,2013-03-18 21:12:00,
2013-03-18 17:17:00,26.5,24.9,29.95,ENE,67,7.0,-999.0,93,0.00,,,0.00,MetarLogicWeatherSta,2013-03-18 21:17:00,
2013-03-18 17:22:00,26.5,24.6,29.94,ENE,67,12.0,-999.0,92,0.00,,,0.00,MetarLogicWeatherSta,2013-03-18 21:22:00,
2013-03-18 17:27:00,26.6,24.4,29.94,East,90,6.0,-999.0,91,0.00,,,0.00,MetarLogicWeatherSta,2013-03-18 21:27:00,
2013-03-18 17:32:00,26.6,24.2,29.94,NE,45,16.0,-999.0,90,0.00,,,0.00,MetarLogicWeatherSta,2013-03-18 21:32:00,
2013-03-18 17:37:00,26.7,24.0,29.93,East,90,7.0,-999.0,89,0.00,,,0.00,MetarLogicWeatherSta,2013-03-18 21:37:00,
2013-03-18 17:42:00,26.8,24.3,29.93,East,90,13.0,-999.0,90,0.00,,,0.00,MetarLogicWeatherSta,2013-03-18 21:42:00,
2013-03-18 17:47:00,27.0,24.6,29.92,NE,45,4.0,-999.0,90,0.00,,,0.00,MetarLogicWeatherSta,2013-03-18 21:47:00,
2013-03-18 17:52:00,26.7,23.8,29.92,ENE,67,13.0,-999.0,89,0.00,,,0.00,MetarLogicWeatherSta,2013-03-18 21:52:00,
2013-03-18 17:57:00,26.7,24.1,29.92,ENE,67,10.0,-999.0,89,0.00,,,0.00,MetarLogicWeatherSta,2013-03-18 21:57:00,
2013-03-18 18:02:00,26.9,24.1,29.92,East,90,7.0,-999.0,89,0.00,,,0.00,MetarLogicWeatherSta,2013-03-18 22:02:00,
2013-03-18 18:07:00,27.1,23.9,29.91,NE,45,9.0,-999.0,87,0.00,,,0.00,MetarLogicWeatherSta,2013-03-18 22:07:00,
2013-03-18 18:12:00,27.2,24.1,29.91,ENE,67,12.0,-999.0,87,0.00,,,0.00,MetarLogicWeatherSta,2013-03-18 22:12:00,
2013-03-18 18:17:00,27.3,23.8,29.90,East,90,12.0,-999.0,86,0.00,,,0.00,MetarLogicWeatherSta,2013-03-18 22:17:00,
2013-03-18 18:22:00,27.4,23.9,29.90,ENE,67,9.0,-999.0,86,0.00,,,0.00,MetarLogicWeatherSta,2013-03-18 22:22:00,
2013-03-18 18:27:00,27.3,23.7,29.90,ESE,112,10.0,-999.0,86,0.00,,,0.00,MetarLogicWeatherSta,2013-03-18 22:27:00,
2013-03-18 18:32:00,27.3,23.5,29.91,NE,45,6.0,-999.0,85,0.00,,,0.00,MetarLogicWeatherSta,2013-03-18 22:32:00,
2013-03-18 18:37:00,27.6,23.5,29.90,East,90,9.0,-999.0,84,0.00,,,0.00,MetarLogicWeatherSta,2013-03-18 22:37:00,
2013-03-18 18:42:00,27.8,23.5,29.90,ENE,67,12.0,-999.0,83,0.00,,,0.00,MetarLogicWeatherSta,2013-03-18 22:42:00,
2013-03-18 18:47:00,27.9,23.4,29.90,NE,45,13.0,-999.0,83,0.00,,,0.00,MetarLogicWeatherSta,2013-03-18 22:47:00,
2013-03-18 18:52:00,27.9,23.3,29.90,East,90,7.0,-999.0,82,0.00,,,0.00,MetarLogicWeatherSta,2013-03-18 22:52:00,
2013-03-18 18:57:00,27.8,23.2,29.89,NE,45,9.0,-999.0,82,0.00,,,0.00,MetarLogicWeatherSta,2013-03-18 22:57:00,
2013-03-18 19:03:00,27.8,23.2,29.90,East,98,6.7,15.0,82,0.00,,,0.00,MetarLogicWeatherSta,2013-03-18 23:03:00,
2013-03-18 19:08:00,28.0,23.0,29.89,ESE,102,6.1,10.0,81,0.00,,,0.00,MetarLogicWeatherSta,2013-03-18 23:08:00,
2013-03-18 19:13:00,28.2,23.1,29.89,NNE,22,4.0,-999.0,81,0.00,,,0.00,MetarLogicWeatherSta,2013-03-18 23:13:00,
2013-03-18 19:18:00,28.1,23.0,29.89,ESE,112,4.0,-999.0,81,0.00,,,0.00,MetarLogicWeatherSta,2013-03-18 23:18:00,
2013-03-18 19:23:00,28.3,23.0,29.89,NE,45,7.0,-999.0,80,0.00,,,0.00,MetarLogicWeatherSta,2013-03-18 23:23:00,
2013-03-18 19:28:00,28.2,22.9,29.88,East,90,4.0,-999.0,80,0.00,,,0.00,MetarLogicWeatherSta,2013-03-18 23:28:00,
2013-03-18 19:33:00,28.3,23.0,29.88,East,90,6.0,-999.0,80,0.00,,,0.00,MetarLogicWeatherSta,2013-03-18 23:33:00,
2013-03-18 19:38:00,28.4,23.2,29.88,East,90,6.0,-999.0,80,0.00,,,0.00,MetarLogicWeatherSta,2013-03-18 23:38:00,
2013-03-18 19:43:00,28.4,23.4,29.88,East,93,6.7,10.0,81,0.00,,,0.00,MetarLogicWeatherSta,2013-03-18 23:43:00,
2013-03-18 19:48:00,28.5,24.0,29.87,ENE,67,9.0,-999.0,83,0.00,,,0.00,MetarLogicWeatherSta,2013-03-18 23:48:00,
2013-03-18 19:53:00,28.3,23.8,29.87,NE,45,7.0,-999.0,82,0.00,,,0.00,MetarLogicWeatherSta,2013-03-18 23:53:00,
2013-03-18 19:58:00,28.2,23.9,29.87,NE,45,6.0,-999.0,83,0.00,,,0.00,MetarLogicWeatherSta,2013-03-18 23:58:00,
2013-03-18 20:03:00,28.3,23.9,29.86,East,90,9.0,-999.0,83,0.00,,,0.00,MetarLogicWeatherSta,2013-03-19 00:03:00,
2013-03-18 20:08:00,28.5,23.6,29.86,East,90,9.0,-999.0,81,0.00,,,0.00,MetarLogicWeatherSta,2013-03-19 00:08:00,
2013-03-18 20:13:00,28.7,23.8,29.86,ESE,112,7.0,-999.0,81,0.00,,,0.00,MetarLogicWeatherSta,2013-03-19 00:13:00,
2013-03-18 20:18:00,28.7,23.7,29.86,East,90,9.0,-999.0,81,0.00,,,0.00,MetarLogicWeatherSta,2013-03-19 00:18:00,
2013-03-18 20:23:00,28.9,23.9,29.85,ENE,67,12.0,-999.0,81,0.00,,,0.00,MetarLogicWeatherSta,2013-03-19 00:23:00,
2013-03-18 20:28:00,29.0,24.2,29.85,East,90,4.0,-999.0,82,0.00,,,0.00,MetarLogicWeatherSta,2013-03-19 00:28:00,
2013-03-18 20:33:00,29.0,24.2,29.84,ENE,67,10.0,-999.0,82,0.00,,,0.00,MetarLogicWeatherSta,2013-03-19 00:33:00,
2013-03-18 20:38:00,29.0,24.2,29.84,NE,45,4.0,-999.0,82,0.00,,,0.00,MetarLogicWeatherSta,2013-03-19 00:38:00,
2013-03-18 20:43:00,29.0,24.5,29.84,East,91,7.3,15.0,83,0.00,,,0.00,MetarLogicWeatherSta,2013-03-19 00:43:00,
2013-03-18 20:48:00,28.9,24.5,29.84,ENE,67,6.0,-999.0,83,0.00,,,0.00,MetarLogicWeatherSta,2013-03-19 00:48:00,
2013-03-18 20:53:00,28.9,24.7,29.84,NE,45,9.0,-999.0,84,0.00,,,0.00,MetarLogicWeatherSta,2013-03-19 00:53:00,
2013-03-18 20:58:00,28.9,24.8,29.83,East,90,6.0,-999.0,84,0.00,,,0.00,MetarLogicWeatherSta,2013-03-19 00:58:00,
2013-03-18 21:03:00,29.0,25.1,29.83,East,90,7.0,-999.0,85,0.00,,,0.00,MetarLogicWeatherSta,2013-03-19 01:03:00,
2013-03-18 21:08:00,29.1,25.4,29.83,NE,45,9.0,-999.0,85,0.00,,,0.00,MetarLogicWeatherSta,2013-03-19 01:08:00,
2013-03-18 21:13:00,29.0,25.2,29.83,East,90,6.0,-999.0,85,0.00,,,0.00,MetarLogicWeatherSta,2013-03-19 01:13:00,
2013-03-18 21:18:00,29.4,25.8,29.83,ENE,67,6.0,-999.0,86,0.00,,,0.00,MetarLogicWeatherSta,2013-03-19 01:18:00,
2013-03-18 21:23:00,29.4,25.9,29.82,NE,45,7.0,-999.0,86,0.00,,,0.00,MetarLogicWeatherSta,2013-03-19 01:23:00,
2013-03-18 21:28:00,29.4,26.0,29.82,NE,45,3.0,-999.0,86,0.00,,,0.00,MetarLogicWeatherSta,2013-03-19 01:28:00,
2013-03-18 21:33:00,29.4,25.9,29.81,NE,45,12.0,-999.0,86,0.00,,,0.00,MetarLogicWeatherSta,2013-03-19 01:33:00,
2013-03-18 21:38:00,29.5,25.9,29.81,NE,45,6.0,-999.0,86,0.00,,,0.00,MetarLogicWeatherSta,2013-03-19 01:38:00,
2013-03-18 21:43:00,29.5,25.9,29.80,NE,45,9.0,-999.0,86,0.00,,,0.00,MetarLogicWeatherSta,2013-03-19 01:43:00,
2013-03-18 21:48:00,29.5,25.9,29.80,NE,45,9.0,-999.0,86,0.00,,,0.00,MetarLogicWeatherSta,2013-03-19 01:48:00,
2013-03-18 21:53:00,29.9,26.3,29.80,East,90,10.0,-999.0,86,0.00,,,0.00,MetarLogicWeatherSta,2013-03-19 01:53:00,
2013-03-18 21:58:00,30.1,26.4,29.80,East,90,10.0,-999.0,85,0.00,,,0.00,MetarLogicWeatherSta,2013-03-19 01:58:00,
2013-03-18 22:03:00,30.6,26.7,29.80,ENE,67,7.0,-999.0,85,0.00,,,0.00,MetarLogicWeatherSta,2013-03-19 02:03:00,
2013-03-18 22:08:00,30.9,27.1,29.80,East,90,7.0,-999.0,85,0.00,,,0.00,MetarLogicWeatherSta,2013-03-19 02:08:00,
2013-03-18 22:13:00,31.0,27.2,29.79,East,90,6.0,-999.0,85,0.00,,,0.00,MetarLogicWeatherSta,2013-03-19 02:13:00,
2013-03-18 22:18:00,31.4,27.3,29.79,ENE,67,9.0,-999.0,84,0.00,,,0.00,MetarLogicWeatherSta,2013-03-19 02:18:00,
2013-03-18 22:23:00,31.8,27.4,29.78,ENE,67,4.0,-999.0,83,0.00,,,0.00,MetarLogicWeatherSta,2013-03-19 02:23:00,
2013-03-18 22:28:00,32.3,27.7,29.78,ENE,67,9.0,-999.0,83,0.00,,,0.00,MetarLogicWeatherSta,2013-03-19 02:28:00,
2013-03-18 22:33:00,31.9,27.6,29.77,NE,45,10.0,-999.0,83,0.00,,,0.00,MetarLogicWeatherSta,2013-03-19 02:33:00,
2013-03-18 22:38:00,32.2,27.9,29.76,ENE,67,4.0,-999.0,83,0.00,,,0.00,MetarLogicWeatherSta,2013-03-19 02:38:00,
2013-03-18 22:43:00,32.5,28.2,29.76,NE,45,10.0,-999.0,84,0.00,,,0.00,MetarLogicWeatherSta,2013-03-19 02:43:00,
2013-03-18 22:48:00,32.3,28.0,29.76,ENE,67,10.0,-999.0,83,0.00,,,0.00,MetarLogicWeatherSta,2013-03-19 02:48:00,
2013-03-18 22:53:00,32.5,28.0,29.76,West,270,4.0,-999.0,83,0.00,,,0.00,MetarLogicWeatherSta,2013-03-19 02:53:00,
2013-03-18 22:58:00,32.5,28.3,29.75,East,90,7.0,-999.0,84,0.00,,,0.00,MetarLogicWeatherSta,2013-03-19 02:58:00,
2013-03-18 23:03:00,32.5,28.5,29.75,NE,45,4.0,-999.0,85,0.00,,,0.00,MetarLogicWeatherSta,2013-03-19 03:03:00,
2013-03-18 23:08:00,32.6,28.5,29.75,SE,135,7.0,-999.0,84,0.00,,,0.00,MetarLogicWeatherSta,2013-03-19 03:08:00,
2013-03-18 23:13:00,32.7,29.0,29.75,East,90,10.0,-999.0,86,0.00,,,0.00,MetarLogicWeatherSta,2013-03-19 03:13:00,
2013-03-18 23:18:00,32.7,29.1,29.74,South,180,1.0,-999.0,86,0.00,,,0.00,MetarLogicWeatherSta,2013-03-19 03:18:00,
2013-03-18 23:23:00,32.8,29.5,29.73,East,90,7.0,-999.0,87,0.00,,,0.00,MetarLogicWeatherSta,2013-03-19 03:23:00,
2013-03-18 23:28:00,32.7,29.2,29.73,East,90,10.0,-999.0,86,0.00,,,0.00,MetarLogicWeatherSta,2013-03-19 03:28:00,
2013-03-18 23:33:00,32.6,29.1,29.73,NE,45,9.0,-999.0,86,0.00,,,0.00,MetarLogicWeatherSta,2013-03-19 03:33:00,
2013-03-18 23:38:00,32.6,29.2,29.73,ENE,67,6.0,-999.0,87,0.00,,,0.00,MetarLogicWeatherSta,2013-03-19 03:38:00,
2013-03-18 23:43:00,32.7,29.2,29.73,South,180,3.0,-999.0,86,0.00,,,0.00,MetarLogicWeatherSta,2013-03-19 03:43:00,
2013-03-18 23:48:00,32.5,29.0,29.73,East,90,10.0,-999.0,86,0.00,,,0.00,MetarLogicWeatherSta,2013-03-19 03:48:00,
2013-03-18 23:53:00,32.6,29.1,29.73,SSE,157,4.0,-999.0,86,0.00,,,0.00,MetarLogicWeatherSta,2013-03-19 03:53:00,